UAL1508 KSFO-KEUG
Flight info
| Callsign | UAL1508 |
|---|---|
| Flight time | N/A |
| Altitude | 36000 |
| Route | TRUKN2 GRTFL EUG |
| Aircraft | A320/M-SDE3FGHIRWY/LB1 |
Departure
| Time | 2026-05-05 03:14 |
|---|---|
| Airport | San Francisco International Airport (KSFO) |
Arrival
| Time | N/A |
|---|---|
| Airport | Eugene Airport (KEUG) |
| Time | Latitude | Longitude | Altitude | Speed | Heading |
|---|---|---|---|---|---|
| 2026-05-05 02:42 | 37.61656 | -122.38086 | 16 ft | 0 kts | 341° |
| 2026-05-05 03:01 | 37.61646 | -122.38082 | 16 ft | 3 kts | 341° |
| 2026-05-05 03:01 | 37.61628 | -122.38074 | 15 ft | 2 kts | 341° |
| 2026-05-05 03:01 | 37.61615 | -122.38069 | 16 ft | 3 kts | 349° |
| 2026-05-05 03:01 | 37.61597 | -122.38068 | 15 ft | 3 kts | 30° |
| 2026-05-05 03:02 | 37.61588 | -122.38080 | 15 ft | 3 kts | 90° |
| 2026-05-05 03:02 | 37.61591 | -122.38105 | 17 ft | 3 kts | 109° |
| 2026-05-05 03:02 | 37.61598 | -122.38127 | 15 ft | 2 kts | 117° |
| 2026-05-05 03:02 | 37.61600 | -122.38132 | 16 ft | 1 kts | 118° |
| 2026-05-05 03:07 | 37.61598 | -122.38127 | 16 ft | 3 kts | 118° |
| 2026-05-05 03:08 | 37.61579 | -122.38083 | 16 ft | 7 kts | 118° |
| 2026-05-05 03:08 | 37.61530 | -122.38053 | 14 ft | 10 kts | 186° |
| 2026-05-05 03:08 | 37.61459 | -122.38098 | 17 ft | 12 kts | 207° |
| 2026-05-05 03:08 | 37.61396 | -122.38057 | 17 ft | 12 kts | 120° |
| 2026-05-05 03:09 | 37.61349 | -122.37949 | 16 ft | 16 kts | 118° |
| 2026-05-05 03:09 | 37.61291 | -122.37815 | 20 ft | 18 kts | 118° |
| 2026-05-05 03:09 | 37.61234 | -122.37670 | 19 ft | 15 kts | 110° |
| 2026-05-05 03:09 | 37.61228 | -122.37584 | 20 ft | 15 kts | 76° |
| 2026-05-05 03:10 | 37.61290 | -122.37476 | 22 ft | 16 kts | 36° |
| 2026-05-05 03:10 | 37.61393 | -122.37407 | 22 ft | 19 kts | 28° |
| 2026-05-05 03:10 | 37.61511 | -122.37326 | 26 ft | 14 kts | 37° |
| 2026-05-05 03:10 | 37.61562 | -122.37208 | 23 ft | 18 kts | 82° |
| 2026-05-05 03:11 | 37.61521 | -122.37037 | 24 ft | 23 kts | 120° |
| 2026-05-05 03:11 | 37.61428 | -122.36871 | 20 ft | 26 kts | 134° |
| 2026-05-05 03:11 | 37.61318 | -122.36668 | 19 ft | 30 kts | 117° |
| 2026-05-05 03:11 | 37.61211 | -122.36412 | 17 ft | 35 kts | 118° |
| 2026-05-05 03:12 | 37.61112 | -122.36177 | 20 ft | 29 kts | 118° |
| 2026-05-05 03:12 | 37.61051 | -122.36024 | 20 ft | 14 kts | 104° |
| 2026-05-05 03:12 | 37.61066 | -122.35935 | 20 ft | 8 kts | 55° |
| 2026-05-05 03:12 | 37.61094 | -122.35907 | 20 ft | 5 kts | 30° |
| 2026-05-05 03:13 | 37.61134 | -122.35879 | 21 ft | 8 kts | 28° |
| 2026-05-05 03:13 | 37.61182 | -122.35865 | 20 ft | 6 kts | 317° |
| 2026-05-05 03:13 | 37.61191 | -122.35888 | 20 ft | 0 kts | 296° |
| 2026-05-05 03:13 | 37.61259 | -122.36054 | 16 ft | 64 kts | 298° |
| 2026-05-05 03:14 | 37.61597 | -122.36855 | 23 ft | 138 kts | 298° |
| 2026-05-05 03:14 | 37.62119 | -122.38091 | 382 ft | 167 kts | 298° |
| 2026-05-05 03:14 | 37.62745 | -122.39339 | 1307 ft | 170 kts | 317° |
| 2026-05-05 03:14 | 37.63864 | -122.39831 | 2115 ft | 187 kts | 1° |
| 2026-05-05 03:15 | 37.65120 | -122.39101 | 2580 ft | 221 kts | 44° |
| 2026-05-05 03:15 | 37.66003 | -122.37398 | 3305 ft | 246 kts | 62° |
| 2026-05-05 03:15 | 37.66739 | -122.35352 | 4206 ft | 264 kts | 67° |
| 2026-05-05 03:15 | 37.67429 | -122.33173 | 5367 ft | 271 kts | 67° |
| 2026-05-05 03:16 | 37.68151 | -122.30956 | 6549 ft | 276 kts | 65° |
| 2026-05-05 03:16 | 37.68931 | -122.28716 | 7705 ft | 281 kts | 64° |
| 2026-05-05 03:16 | 37.69835 | -122.26517 | 8819 ft | 285 kts | 53° |
| 2026-05-05 03:16 | 37.71283 | -122.24795 | 9866 ft | 289 kts | 30° |
| 2026-05-05 03:17 | 37.73179 | -122.23961 | 10907 ft | 292 kts | 6° |
| 2026-05-05 03:17 | 37.75278 | -122.23846 | 11521 ft | 314 kts | 1° |
| 2026-05-05 03:17 | 37.77551 | -122.23815 | 11906 ft | 339 kts | 0° |
| 2026-05-05 03:17 | 37.79969 | -122.23808 | 12435 ft | 354 kts | 360° |
| 2026-05-05 03:18 | 37.82459 | -122.23805 | 13250 ft | 361 kts | 0° |
| 2026-05-05 03:18 | 37.84984 | -122.23794 | 14114 ft | 365 kts | 1° |
| 2026-05-05 03:18 | 37.87536 | -122.23775 | 14964 ft | 368 kts | 1° |
| 2026-05-05 03:18 | 37.90049 | -122.23747 | 15752 ft | 372 kts | 2° |
| 2026-05-05 03:19 | 37.95273 | -122.23668 | 17368 ft | 378 kts | 3° |
| 2026-05-05 03:19 | 37.97599 | -122.23633 | 18078 ft | 382 kts | 3° |
| 2026-05-05 03:19 | 38.00182 | -122.23595 | 18874 ft | 385 kts | 4° |
| 2026-05-05 03:20 | 38.02873 | -122.23560 | 19674 ft | 389 kts | 4° |
| 2026-05-05 03:20 | 38.05590 | -122.23525 | 20437 ft | 393 kts | 4° |
| 2026-05-05 03:20 | 38.08295 | -122.23490 | 21134 ft | 397 kts | 4° |
| 2026-05-05 03:20 | 38.11068 | -122.23454 | 21790 ft | 400 kts | 5° |
| 2026-05-05 03:21 | 38.13872 | -122.23418 | 22402 ft | 404 kts | 5° |
| 2026-05-05 03:21 | 38.16686 | -122.23381 | 22999 ft | 407 kts | 5° |
| 2026-05-05 03:21 | 38.19530 | -122.23344 | 23562 ft | 410 kts | 5° |
| 2026-05-05 03:21 | 38.22398 | -122.23309 | 24104 ft | 414 kts | 5° |
| 2026-05-05 03:22 | 38.25219 | -122.23275 | 24620 ft | 416 kts | 5° |
| 2026-05-05 03:22 | 38.28120 | -122.23239 | 25142 ft | 418 kts | 5° |
| 2026-05-05 03:22 | 38.31042 | -122.23200 | 25676 ft | 420 kts | 6° |
| 2026-05-05 03:22 | 38.33963 | -122.23157 | 26208 ft | 421 kts | 5° |
| 2026-05-05 03:23 | 38.36913 | -122.23394 | 26706 ft | 428 kts | 359° |
| 2026-05-05 03:23 | 38.39879 | -122.23863 | 27205 ft | 430 kts | 359° |
| 2026-05-05 03:23 | 38.42844 | -122.24334 | 27692 ft | 431 kts | 359° |
| 2026-05-05 03:23 | 38.45824 | -122.24808 | 28150 ft | 432 kts | 359° |
| 2026-05-05 03:24 | 38.48811 | -122.25284 | 28602 ft | 434 kts | 359° |
| 2026-05-05 03:24 | 38.51811 | -122.25762 | 29129 ft | 433 kts | 359° |
| 2026-05-05 03:24 | 38.54787 | -122.26238 | 29723 ft | 430 kts | 359° |
| 2026-05-05 03:24 | 38.57745 | -122.26712 | 30347 ft | 427 kts | 359° |
| 2026-05-05 03:25 | 38.60691 | -122.27185 | 30952 ft | 425 kts | 359° |
| 2026-05-05 03:25 | 38.63625 | -122.27651 | 31440 ft | 426 kts | 359° |
| 2026-05-05 03:25 | 38.66574 | -122.28113 | 31910 ft | 427 kts | 359° |
| 2026-05-05 03:25 | 38.69530 | -122.28576 | 32392 ft | 429 kts | 359° |
| 2026-05-05 03:26 | 38.72499 | -122.29045 | 32861 ft | 430 kts | 358° |
| 2026-05-05 03:26 | 38.75470 | -122.29518 | 33334 ft | 431 kts | 358° |
| 2026-05-05 03:26 | 38.78452 | -122.29993 | 33819 ft | 432 kts | 358° |
| 2026-05-05 03:26 | 38.81440 | -122.30469 | 34317 ft | 433 kts | 358° |
| 2026-05-05 03:27 | 38.84432 | -122.30943 | 34797 ft | 434 kts | 358° |
| 2026-05-05 03:27 | 38.87427 | -122.31414 | 35295 ft | 434 kts | 358° |
| 2026-05-05 03:27 | 38.90422 | -122.31891 | 35767 ft | 434 kts | 357° |
| 2026-05-05 03:27 | 38.93432 | -122.32376 | 36011 ft | 436 kts | 357° |
| 2026-05-05 03:28 | 38.99486 | -122.33354 | 36064 ft | 440 kts | 357° |
| 2026-05-05 03:28 | 39.05559 | -122.34331 | 36061 ft | 440 kts | 357° |
| 2026-05-05 03:29 | 39.11641 | -122.35311 | 36068 ft | 440 kts | 357° |
| 2026-05-05 03:29 | 39.17704 | -122.36287 | 36065 ft | 439 kts | 357° |
| 2026-05-05 03:30 | 39.23760 | -122.37261 | 36063 ft | 438 kts | 357° |
| 2026-05-05 03:30 | 39.29816 | -122.38238 | 36069 ft | 439 kts | 357° |
| 2026-05-05 03:31 | 39.35869 | -122.39219 | 36068 ft | 438 kts | 357° |
| 2026-05-05 03:31 | 39.41924 | -122.40202 | 36069 ft | 438 kts | 358° |
| 2026-05-05 03:32 | 39.47972 | -122.41181 | 36057 ft | 437 kts | 358° |
| 2026-05-05 03:32 | 39.53956 | -122.42152 | 36057 ft | 437 kts | 358° |
| 2026-05-05 03:33 | 39.59990 | -122.43142 | 36047 ft | 437 kts | 358° |
| 2026-05-05 03:33 | 39.66022 | -122.44127 | 36037 ft | 437 kts | 358° |
| 2026-05-05 03:34 | 39.72046 | -122.45102 | 36035 ft | 437 kts | 358° |
| 2026-05-05 03:34 | 39.78075 | -122.46091 | 36034 ft | 436 kts | 358° |
| 2026-05-05 03:35 | 39.84091 | -122.47088 | 36030 ft | 436 kts | 358° |
| 2026-05-05 03:35 | 39.90110 | -122.48085 | 36024 ft | 436 kts | 358° |
| 2026-05-05 03:36 | 39.96135 | -122.49080 | 36027 ft | 436 kts | 358° |
| 2026-05-05 03:36 | 40.02153 | -122.50073 | 36023 ft | 436 kts | 358° |
| 2026-05-05 03:37 | 40.08162 | -122.51066 | 36023 ft | 435 kts | 358° |
| 2026-05-05 03:37 | 40.14160 | -122.52056 | 36021 ft | 434 kts | 358° |
| 2026-05-05 03:38 | 40.20147 | -122.53039 | 36019 ft | 433 kts | 358° |
| 2026-05-05 03:38 | 40.26124 | -122.54031 | 36017 ft | 433 kts | 358° |
| 2026-05-05 03:39 | 40.32102 | -122.55031 | 36015 ft | 432 kts | 358° |
| 2026-05-05 03:39 | 40.38059 | -122.56023 | 36009 ft | 431 kts | 358° |
| 2026-05-05 03:40 | 40.44010 | -122.57018 | 36007 ft | 431 kts | 358° |
| 2026-05-05 03:40 | 40.49954 | -122.58014 | 36004 ft | 430 kts | 358° |
| 2026-05-05 03:41 | 40.55899 | -122.59014 | 36001 ft | 430 kts | 358° |
| 2026-05-05 03:41 | 40.61836 | -122.60007 | 36001 ft | 430 kts | 358° |
| 2026-05-05 03:42 | 40.67766 | -122.60998 | 36005 ft | 429 kts | 358° |
| 2026-05-05 03:42 | 40.73689 | -122.61995 | 36006 ft | 429 kts | 358° |
| 2026-05-05 03:43 | 40.79599 | -122.62997 | 36006 ft | 428 kts | 358° |
| 2026-05-05 03:43 | 40.85475 | -122.63995 | 35998 ft | 428 kts | 358° |
| 2026-05-05 03:44 | 40.91424 | -122.65010 | 35994 ft | 428 kts | 358° |